KHSV/HSV METAR and TAF weather

Enter ICAO airport designator
Station Type Date Time Source
KHSV METAR 2021/05/14 13:53 UTC NOAA

KHSV 141353Z 08003KT 10SM CLR 17/07 A3030 RMK SLP257 T01670067


Station Type Date Time Source
KHSV Decoded METAR 2021/05/14 13:53 UTC NOAA

HUNTSVILLE INTERNATIONAL JONES FIELD, AL, United States (KHSV) 34-39N 086-47W 191M
May 14, 2021 - 09:53 AM EDT / 2021.05.14 1353 UTC
Wind: from the E (080 degrees) at 3 MPH (3 KT):0
Visibility: 10 mile(s):0
Sky conditions: clear
Temperature: 62.1 F (16.7 C)
Dew Point: 44.1 F (6.7 C)
Relative Humidity: 51%
Pressure (altimeter): 30.3 in. Hg (1026 hPa)
ob: KHSV 141353Z 08003KT 10SM CLR 17/07 A3030 RMK SLP257 T01670067
cycle: 14

Station Type Date Time Source
KHSV TAF 2021/05/14 12:30 UTC NOAA

TAF KHSV 141128Z 1412/1512 VRB03KT P6SM SKC
FM141700 35006KT P6SM FEW050 SCT250
FM150000 07003KT P6SM SCT250

Example: see airport list